sensor_id;sensor_type;location;lat;lon;timestamp;P1;durP1;ratioP1;P2;durP2;ratioP2
10537;SDS011;5317;49.048;8.468;2023-02-20T00:00:28;7.37;;;3.93;;
10537;SDS011;5317;49.048;8.468;2023-02-20T00:02:57;7.20;;;4.40;;
10537;SDS011;5317;49.048;8.468;2023-02-20T00:05:24;8.83;;;4.00;;
10537;SDS011;5317;49.048;8.468;2023-02-20T00:07:51;8.67;;;3.73;;
10537;SDS011;5317;49.048;8.468;2023-02-20T00:10:18;6.63;;;3.77;;
10537;SDS011;5317;49.048;8.468;2023-02-20T00:12:45;5.53;;;3.57;;
10537;SDS011;5317;49.048;8.468;2023-02-20T00:15:13;5.17;;;3.73;;
10537;SDS011;5317;49.048;8.468;2023-02-20T00:17:42;5.73;;;3.50;;
10537;SDS011;5317;49.048;8.468;2023-02-20T00:20:12;4.97;;;3.30;;
10537;SDS011;5317;49.048;8.468;2023-02-20T00:22:39;10.60;;;3.70;;
10537;SDS011;5317;49.048;8.468;2023-02-20T00:25:06;9.07;;;4.07;;
10537;SDS011;5317;49.048;8.468;2023-02-20T00:27:33;7.07;;;3.90;;
10537;SDS011;5317;49.048;8.468;2023-02-20T00:30:00;5.17;;;3.90;;
10537;SDS011;5317;49.048;8.468;2023-02-20T00:32:27;8.70;;;4.10;;
10537;SDS011;5317;49.048;8.468;2023-02-20T00:34:55;7.97;;;4.13;;
10537;SDS011;5317;49.048;8.468;2023-02-20T00:37:22;6.70;;;3.40;;
10537;SDS011;5317;49.048;8.468;2023-02-20T00:40:01;4.97;;;3.87;;
10537;SDS011;5317;49.048;8.468;2023-02-20T00:42:27;6.80;;;3.30;;
10537;SDS011;5317;49.048;8.468;2023-02-20T00:44:54;5.70;;;3.60;;
10537;SDS011;5317;49.048;8.468;2023-02-20T00:47:21;6.47;;;3.97;;
10537;SDS011;5317;49.048;8.468;2023-02-20T00:49:48;9.80;;;4.60;;
10537;SDS011;5317;49.048;8.468;2023-02-20T00:52:16;4.97;;;3.50;;
10537;SDS011;5317;49.048;8.468;2023-02-20T00:54:43;5.40;;;3.60;;
10537;SDS011;5317;49.048;8.468;2023-02-20T00:57:10;7.20;;;4.30;;
10537;SDS011;5317;49.048;8.468;2023-02-20T00:59:37;7.00;;;4.03;;
10537;SDS011;5317;49.048;8.468;2023-02-20T01:02:04;9.00;;;3.97;;
10537;SDS011;5317;49.048;8.468;2023-02-20T01:04:30;9.57;;;4.13;;
10537;SDS011;5317;49.048;8.468;2023-02-20T01:06:57;7.83;;;3.83;;
10537;SDS011;5317;49.048;8.468;2023-02-20T01:09:26;8.67;;;3.83;;
10537;SDS011;5317;49.048;8.468;2023-02-20T01:11:53;9.50;;;3.87;;
10537;SDS011;5317;49.048;8.468;2023-02-20T01:14:23;9.47;;;4.13;;
10537;SDS011;5317;49.048;8.468;2023-02-20T01:16:50;6.77;;;3.60;;
10537;SDS011;5317;49.048;8.468;2023-02-20T01:19:19;5.67;;;3.40;;
10537;SDS011;5317;49.048;8.468;2023-02-20T01:21:47;8.97;;;3.97;;
10537;SDS011;5317;49.048;8.468;2023-02-20T01:24:14;9.00;;;4.40;;
10537;SDS011;5317;49.048;8.468;2023-02-20T01:26:43;7.07;;;3.73;;
10537;SDS011;5317;49.048;8.468;2023-02-20T01:29:11;6.27;;;3.33;;
10537;SDS011;5317;49.048;8.468;2023-02-20T01:31:38;7.73;;;4.00;;
10537;SDS011;5317;49.048;8.468;2023-02-20T01:34:05;7.40;;;3.90;;
10537;SDS011;5317;49.048;8.468;2023-02-20T01:36:32;7.30;;;4.40;;
10537;SDS011;5317;49.048;8.468;2023-02-20T01:38:59;7.00;;;3.97;;
10537;SDS011;5317;49.048;8.468;2023-02-20T01:41:26;8.67;;;4.03;;
10537;SDS011;5317;49.048;8.468;2023-02-20T01:43:54;5.63;;;3.50;;
10537;SDS011;5317;49.048;8.468;2023-02-20T01:49:22;16.00;;;4.47;;
10537;SDS011;5317;49.048;8.468;2023-02-20T01:51:56;7.00;;;3.87;;
10537;SDS011;5317;49.048;8.468;2023-02-20T01:54:27;7.00;;;4.17;;
10537;SDS011;5317;49.048;8.468;2023-02-20T01:56:56;5.90;;;3.80;;
10537;SDS011;5317;49.048;8.468;2023-02-20T01:59:28;6.57;;;4.10;;
10537;SDS011;5317;49.048;8.468;2023-02-20T02:01:58;7.87;;;4.10;;
10537;SDS011;5317;49.048;8.468;2023-02-20T02:04:25;5.77;;;3.90;;
10537;SDS011;5317;49.048;8.468;2023-02-20T02:06:53;6.33;;;3.80;;
10537;SDS011;5317;49.048;8.468;2023-02-20T02:09:22;9.20;;;4.10;;
10537;SDS011;5317;49.048;8.468;2023-02-20T02:11:56;7.60;;;3.73;;
10537;SDS011;5317;49.048;8.468;2023-02-20T02:14:22;8.30;;;4.00;;
10537;SDS011;5317;49.048;8.468;2023-02-20T02:16:55;7.87;;;4.00;;
10537;SDS011;5317;49.048;8.468;2023-02-20T02:19:37;8.77;;;4.00;;
10537;SDS011;5317;49.048;8.468;2023-02-20T02:22:31;7.27;;;4.20;;
10537;SDS011;5317;49.048;8.468;2023-02-20T02:25:31;6.80;;;3.63;;
10537;SDS011;5317;49.048;8.468;2023-02-20T02:28:11;5.67;;;3.87;;
10537;SDS011;5317;49.048;8.468;2023-02-20T02:37:03;9.17;;;4.53;;
10537;SDS011;5317;49.048;8.468;2023-02-20T02:39:39;8.20;;;4.03;;
10537;SDS011;5317;49.048;8.468;2023-02-20T02:42:21;5.80;;;3.50;;
10537;SDS011;5317;49.048;8.468;2023-02-20T02:44:55;9.03;;;4.57;;
10537;SDS011;5317;49.048;8.468;2023-02-20T02:47:29;9.43;;;4.13;;
10537;SDS011;5317;49.048;8.468;2023-02-20T02:50:03;6.23;;;4.43;;
10537;SDS011;5317;49.048;8.468;2023-02-20T02:52:36;5.43;;;3.63;;
10537;SDS011;5317;49.048;8.468;2023-02-20T02:55:14;7.93;;;3.97;;
10537;SDS011;5317;49.048;8.468;2023-02-20T02:57:46;8.10;;;4.03;;
10537;SDS011;5317;49.048;8.468;2023-02-20T03:00:13;5.57;;;4.17;;
10537;SDS011;5317;49.048;8.468;2023-02-20T03:02:45;6.30;;;4.50;;
10537;SDS011;5317;49.048;8.468;2023-02-20T03:05:17;8.53;;;4.43;;
10537;SDS011;5317;49.048;8.468;2023-02-20T03:07:49;9.37;;;3.70;;
10537;SDS011;5317;49.048;8.468;2023-02-20T03:10:19;7.50;;;4.47;;
10537;SDS011;5317;49.048;8.468;2023-02-20T03:12:55;6.93;;;3.80;;
10537;SDS011;5317;49.048;8.468;2023-02-20T03:15:28;8.87;;;4.23;;
10537;SDS011;5317;49.048;8.468;2023-02-20T03:17:58;9.60;;;4.20;;
10537;SDS011;5317;49.048;8.468;2023-02-20T03:20:40;7.07;;;4.23;;
10537;SDS011;5317;49.048;8.468;2023-02-20T03:23:12;7.10;;;4.40;;
10537;SDS011;5317;49.048;8.468;2023-02-20T03:25:44;7.00;;;4.20;;
10537;SDS011;5317;49.048;8.468;2023-02-20T03:28:17;7.77;;;3.67;;
10537;SDS011;5317;49.048;8.468;2023-02-20T03:30:48;8.00;;;4.00;;
10537;SDS011;5317;49.048;8.468;2023-02-20T03:33:20;7.87;;;4.23;;
10537;SDS011;5317;49.048;8.468;2023-02-20T03:36:09;5.20;;;4.10;;
10537;SDS011;5317;49.048;8.468;2023-02-20T03:38:59;6.87;;;3.73;;
10537;SDS011;5317;49.048;8.468;2023-02-20T03:41:47;8.50;;;4.60;;
10537;SDS011;5317;49.048;8.468;2023-02-20T03:44:32;7.70;;;4.40;;
10537;SDS011;5317;49.048;8.468;2023-02-20T03:47:01;6.33;;;4.13;;
10537;SDS011;5317;49.048;8.468;2023-02-20T03:49:30;6.43;;;3.70;;
10537;SDS011;5317;49.048;8.468;2023-02-20T03:52:00;10.40;;;4.57;;
10537;SDS011;5317;49.048;8.468;2023-02-20T03:54:29;8.80;;;4.37;;
10537;SDS011;5317;49.048;8.468;2023-02-20T03:56:58;8.30;;;4.20;;
10537;SDS011;5317;49.048;8.468;2023-02-20T03:59:29;6.80;;;3.70;;
10537;SDS011;5317;49.048;8.468;2023-02-20T04:02:00;7.23;;;4.07;;
10537;SDS011;5317;49.048;8.468;2023-02-20T04:04:32;10.07;;;4.30;;
10537;SDS011;5317;49.048;8.468;2023-02-20T04:07:03;8.50;;;4.20;;
10537;SDS011;5317;49.048;8.468;2023-02-20T04:09:37;8.47;;;4.90;;
10537;SDS011;5317;49.048;8.468;2023-02-20T04:12:10;7.07;;;4.60;;
10537;SDS011;5317;49.048;8.468;2023-02-20T04:14:40;5.20;;;3.70;;
10537;SDS011;5317;49.048;8.468;2023-02-20T04:17:10;8.60;;;4.33;;
10537;SDS011;5317;49.048;8.468;2023-02-20T04:19:41;10.93;;;4.53;;
10537;SDS011;5317;49.048;8.468;2023-02-20T04:22:08;7.40;;;4.63;;
10537;SDS011;5317;49.048;8.468;2023-02-20T04:24:42;7.73;;;4.50;;
10537;SDS011;5317;49.048;8.468;2023-02-20T04:27:13;9.13;;;4.37;;
10537;SDS011;5317;49.048;8.468;2023-02-20T04:29:40;11.27;;;4.30;;
10537;SDS011;5317;49.048;8.468;2023-02-20T04:32:07;6.77;;;4.33;;
10537;SDS011;5317;49.048;8.468;2023-02-20T04:34:34;8.03;;;4.00;;
10537;SDS011;5317;49.048;8.468;2023-02-20T04:37:03;6.07;;;4.53;;
10537;SDS011;5317;49.048;8.468;2023-02-20T04:39:33;6.90;;;4.53;;
10537;SDS011;5317;49.048;8.468;2023-02-20T04:42:02;7.37;;;4.90;;
10537;SDS011;5317;49.048;8.468;2023-02-20T04:44:29;8.03;;;5.03;;
10537;SDS011;5317;49.048;8.468;2023-02-20T04:46:59;7.10;;;4.30;;
10537;SDS011;5317;49.048;8.468;2023-02-20T04:49:27;7.00;;;4.70;;
10537;SDS011;5317;49.048;8.468;2023-02-20T04:51:54;7.17;;;4.63;;
10537;SDS011;5317;49.048;8.468;2023-02-20T04:54:21;8.70;;;4.80;;
10537;SDS011;5317;49.048;8.468;2023-02-20T04:56:48;9.30;;;5.30;;
10537;SDS011;5317;49.048;8.468;2023-02-20T04:59:17;10.67;;;5.03;;
10537;SDS011;5317;49.048;8.468;2023-02-20T05:01:44;6.63;;;4.87;;
10537;SDS011;5317;49.048;8.468;2023-02-20T05:04:13;7.93;;;5.13;;
10537;SDS011;5317;49.048;8.468;2023-02-20T05:06:41;7.87;;;4.53;;
10537;SDS011;5317;49.048;8.468;2023-02-20T05:09:09;8.90;;;5.17;;
10537;SDS011;5317;49.048;8.468;2023-02-20T05:11:36;8.13;;;5.37;;
10537;SDS011;5317;49.048;8.468;2023-02-20T05:14:03;6.90;;;5.33;;
10537;SDS011;5317;49.048;8.468;2023-02-20T05:16:31;8.90;;;5.70;;
10537;SDS011;5317;49.048;8.468;2023-02-20T05:18:58;8.80;;;5.23;;
10537;SDS011;5317;49.048;8.468;2023-02-20T05:21:25;6.53;;;4.60;;
10537;SDS011;5317;49.048;8.468;2023-02-20T05:24:10;7.17;;;5.23;;
10537;SDS011;5317;49.048;8.468;2023-02-20T05:26:37;9.43;;;4.90;;
10537;SDS011;5317;49.048;8.468;2023-02-20T05:29:04;10.53;;;5.40;;
10537;SDS011;5317;49.048;8.468;2023-02-20T05:31:32;6.20;;;4.83;;
10537;SDS011;5317;49.048;8.468;2023-02-20T05:33:59;9.07;;;5.07;;
10537;SDS011;5317;49.048;8.468;2023-02-20T05:36:26;8.30;;;5.40;;
10537;SDS011;5317;49.048;8.468;2023-02-20T05:38:53;9.03;;;5.00;;
10537;SDS011;5317;49.048;8.468;2023-02-20T05:41:19;9.97;;;5.40;;
10537;SDS011;5317;49.048;8.468;2023-02-20T05:43:46;8.13;;;5.20;;
10537;SDS011;5317;49.048;8.468;2023-02-20T05:46:13;8.63;;;4.40;;
10537;SDS011;5317;49.048;8.468;2023-02-20T05:48:42;8.07;;;5.13;;
10537;SDS011;5317;49.048;8.468;2023-02-20T05:51:17;9.13;;;4.97;;
10537;SDS011;5317;49.048;8.468;2023-02-20T05:53:45;7.73;;;5.00;;
10537;SDS011;5317;49.048;8.468;2023-02-20T05:56:12;7.40;;;4.93;;
10537;SDS011;5317;49.048;8.468;2023-02-20T05:58:40;11.40;;;5.70;;
10537;SDS011;5317;49.048;8.468;2023-02-20T06:01:08;7.83;;;5.13;;
10537;SDS011;5317;49.048;8.468;2023-02-20T06:03:35;7.50;;;4.93;;
10537;SDS011;5317;49.048;8.468;2023-02-20T06:06:03;8.17;;;5.40;;
10537;SDS011;5317;49.048;8.468;2023-02-20T06:08:30;7.67;;;5.00;;
10537;SDS011;5317;49.048;8.468;2023-02-20T06:10:57;9.40;;;5.77;;
10537;SDS011;5317;49.048;8.468;2023-02-20T06:13:24;9.83;;;5.00;;
10537;SDS011;5317;49.048;8.468;2023-02-20T06:15:50;11.20;;;5.20;;
10537;SDS011;5317;49.048;8.468;2023-02-20T06:18:17;6.70;;;4.90;;
10537;SDS011;5317;49.048;8.468;2023-02-20T06:20:44;7.50;;;4.53;;
10537;SDS011;5317;49.048;8.468;2023-02-20T06:23:12;9.00;;;5.47;;
10537;SDS011;5317;49.048;8.468;2023-02-20T06:25:39;8.20;;;5.17;;
10537;SDS011;5317;49.048;8.468;2023-02-20T06:28:06;7.90;;;4.87;;
10537;SDS011;5317;49.048;8.468;2023-02-20T06:30:33;6.30;;;4.83;;
10537;SDS011;5317;49.048;8.468;2023-02-20T06:33:00;8.03;;;5.00;;
10537;SDS011;5317;49.048;8.468;2023-02-20T06:35:27;8.60;;;4.50;;
10537;SDS011;5317;49.048;8.468;2023-02-20T06:37:54;8.30;;;4.70;;
10537;SDS011;5317;49.048;8.468;2023-02-20T06:40:22;9.37;;;5.10;;
10537;SDS011;5317;49.048;8.468;2023-02-20T06:42:49;4.93;;;4.17;;
10537;SDS011;5317;49.048;8.468;2023-02-20T06:45:16;8.83;;;4.70;;
10537;SDS011;5317;49.048;8.468;2023-02-20T06:47:43;7.17;;;4.90;;
10537;SDS011;5317;49.048;8.468;2023-02-20T06:50:09;9.77;;;4.57;;
10537;SDS011;5317;49.048;8.468;2023-02-20T06:52:36;7.40;;;4.30;;
10537;SDS011;5317;49.048;8.468;2023-02-20T06:55:04;9.73;;;4.67;;
10537;SDS011;5317;49.048;8.468;2023-02-20T06:57:32;6.93;;;4.90;;
10537;SDS011;5317;49.048;8.468;2023-02-20T06:59:59;7.47;;;4.80;;
10537;SDS011;5317;49.048;8.468;2023-02-20T07:02:26;9.13;;;4.67;;
10537;SDS011;5317;49.048;8.468;2023-02-20T07:04:53;6.10;;;4.50;;
10537;SDS011;5317;49.048;8.468;2023-02-20T07:07:20;8.67;;;4.47;;
10537;SDS011;5317;49.048;8.468;2023-02-20T07:09:47;7.03;;;4.90;;
10537;SDS011;5317;49.048;8.468;2023-02-20T07:12:13;8.97;;;5.07;;
10537;SDS011;5317;49.048;8.468;2023-02-20T07:14:42;6.50;;;5.17;;
10537;SDS011;5317;49.048;8.468;2023-02-20T07:17:08;9.00;;;4.83;;
10537;SDS011;5317;49.048;8.468;2023-02-20T07:19:35;7.40;;;4.33;;
10537;SDS011;5317;49.048;8.468;2023-02-20T07:22:02;5.93;;;4.97;;
10537;SDS011;5317;49.048;8.468;2023-02-20T07:24:29;7.43;;;4.57;;
10537;SDS011;5317;49.048;8.468;2023-02-20T07:26:56;7.43;;;4.50;;
10537;SDS011;5317;49.048;8.468;2023-02-20T07:29:23;7.23;;;4.60;;
10537;SDS011;5317;49.048;8.468;2023-02-20T07:31:51;7.83;;;4.67;;
10537;SDS011;5317;49.048;8.468;2023-02-20T07:34:18;7.83;;;4.73;;
10537;SDS011;5317;49.048;8.468;2023-02-20T07:36:45;10.07;;;4.73;;
10537;SDS011;5317;49.048;8.468;2023-02-20T07:39:14;6.33;;;4.50;;
10537;SDS011;5317;49.048;8.468;2023-02-20T07:41:41;7.50;;;4.70;;
10537;SDS011;5317;49.048;8.468;2023-02-20T07:44:07;6.23;;;4.33;;
10537;SDS011;5317;49.048;8.468;2023-02-20T07:46:37;7.43;;;4.53;;
10537;SDS011;5317;49.048;8.468;2023-02-20T07:49:05;7.40;;;4.37;;
10537;SDS011;5317;49.048;8.468;2023-02-20T07:51:32;7.60;;;4.23;;
10537;SDS011;5317;49.048;8.468;2023-02-20T07:53:59;7.97;;;4.47;;
10537;SDS011;5317;49.048;8.468;2023-02-20T07:56:26;6.60;;;4.10;;
10537;SDS011;5317;49.048;8.468;2023-02-20T07:58:53;6.50;;;4.40;;
10537;SDS011;5317;49.048;8.468;2023-02-20T08:01:23;5.87;;;4.37;;
10537;SDS011;5317;49.048;8.468;2023-02-20T08:03:50;4.97;;;3.97;;
10537;SDS011;5317;49.048;8.468;2023-02-20T08:06:19;4.97;;;3.70;;
10537;SDS011;5317;49.048;8.468;2023-02-20T08:08:46;5.67;;;4.30;;
10537;SDS011;5317;49.048;8.468;2023-02-20T08:11:14;6.27;;;3.87;;
10537;SDS011;5317;49.048;8.468;2023-02-20T08:13:42;6.40;;;3.87;;
10537;SDS011;5317;49.048;8.468;2023-02-20T08:16:09;6.53;;;4.13;;
10537;SDS011;5317;49.048;8.468;2023-02-20T08:18:36;9.17;;;4.33;;
10537;SDS011;5317;49.048;8.468;2023-02-20T08:21:03;7.40;;;4.50;;
10537;SDS011;5317;49.048;8.468;2023-02-20T08:23:31;4.17;;;3.33;;
10537;SDS011;5317;49.048;8.468;2023-02-20T08:25:59;7.20;;;4.30;;
10537;SDS011;5317;49.048;8.468;2023-02-20T08:28:25;5.87;;;4.17;;
10537;SDS011;5317;49.048;8.468;2023-02-20T08:30:52;5.83;;;3.90;;
10537;SDS011;5317;49.048;8.468;2023-02-20T08:33:19;7.60;;;4.07;;
10537;SDS011;5317;49.048;8.468;2023-02-20T08:35:46;4.80;;;3.40;;
10537;SDS011;5317;49.048;8.468;2023-02-20T08:38:21;7.10;;;3.70;;
10537;SDS011;5317;49.048;8.468;2023-02-20T08:40:53;4.60;;;3.73;;
10537;SDS011;5317;49.048;8.468;2023-02-20T08:43:20;6.77;;;3.50;;
10537;SDS011;5317;49.048;8.468;2023-02-20T08:45:47;5.77;;;3.73;;
10537;SDS011;5317;49.048;8.468;2023-02-20T08:48:14;5.97;;;3.40;;
10537;SDS011;5317;49.048;8.468;2023-02-20T08:50:41;3.67;;;3.37;;
10537;SDS011;5317;49.048;8.468;2023-02-20T08:53:09;6.50;;;3.27;;
10537;SDS011;5317;49.048;8.468;2023-02-20T08:55:36;4.03;;;3.60;;
10537;SDS011;5317;49.048;8.468;2023-02-20T08:58:04;4.63;;;3.30;;
10537;SDS011;5317;49.048;8.468;2023-02-20T09:00:32;5.73;;;3.60;;
10537;SDS011;5317;49.048;8.468;2023-02-20T09:02:59;4.77;;;3.20;;
10537;SDS011;5317;49.048;8.468;2023-02-20T09:05:26;5.37;;;3.33;;
10537;SDS011;5317;49.048;8.468;2023-02-20T09:07:53;6.00;;;3.30;;
10537;SDS011;5317;49.048;8.468;2023-02-20T09:10:20;5.47;;;4.03;;
10537;SDS011;5317;49.048;8.468;2023-02-20T09:12:47;4.70;;;3.47;;
10537;SDS011;5317;49.048;8.468;2023-02-20T09:15:15;4.57;;;3.53;;
10537;SDS011;5317;49.048;8.468;2023-02-20T09:17:43;4.43;;;3.33;;
10537;SDS011;5317;49.048;8.468;2023-02-20T09:20:13;7.23;;;3.83;;
10537;SDS011;5317;49.048;8.468;2023-02-20T09:22:40;5.40;;;3.53;;
10537;SDS011;5317;49.048;8.468;2023-02-20T09:25:09;4.10;;;3.00;;
10537;SDS011;5317;49.048;8.468;2023-02-20T09:27:38;4.07;;;3.17;;
10537;SDS011;5317;49.048;8.468;2023-02-20T09:30:05;6.30;;;3.27;;
10537;SDS011;5317;49.048;8.468;2023-02-20T09:32:35;6.10;;;3.37;;
10537;SDS011;5317;49.048;8.468;2023-02-20T09:35:02;7.63;;;4.33;;
10537;SDS011;5317;49.048;8.468;2023-02-20T09:37:29;5.50;;;3.40;;
10537;SDS011;5317;49.048;8.468;2023-02-20T09:40:01;5.30;;;2.90;;
10537;SDS011;5317;49.048;8.468;2023-02-20T09:42:33;3.90;;;2.70;;
10537;SDS011;5317;49.048;8.468;2023-02-20T09:45:09;4.57;;;3.20;;
10537;SDS011;5317;49.048;8.468;2023-02-20T09:47:46;6.37;;;2.60;;
10537;SDS011;5317;49.048;8.468;2023-02-20T09:50:21;3.80;;;2.77;;
10537;SDS011;5317;49.048;8.468;2023-02-20T09:52:56;3.70;;;3.13;;
10537;SDS011;5317;49.048;8.468;2023-02-20T09:55:31;4.57;;;2.70;;
10537;SDS011;5317;49.048;8.468;2023-02-20T09:58:01;6.97;;;3.00;;
10537;SDS011;5317;49.048;8.468;2023-02-20T10:00:30;6.13;;;2.57;;
10537;SDS011;5317;49.048;8.468;2023-02-20T10:03:05;4.27;;;2.53;;
10537;SDS011;5317;49.048;8.468;2023-02-20T10:05:42;6.80;;;2.67;;
10537;SDS011;5317;49.048;8.468;2023-02-20T10:08:10;3.73;;;2.80;;
10537;SDS011;5317;49.048;8.468;2023-02-20T10:10:42;5.23;;;3.07;;
10537;SDS011;5317;49.048;8.468;2023-02-20T10:13:12;6.70;;;2.90;;
10537;SDS011;5317;49.048;8.468;2023-02-20T10:15:55;5.17;;;2.80;;
10537;SDS011;5317;49.048;8.468;2023-02-20T10:18:32;3.83;;;2.60;;
10537;SDS011;5317;49.048;8.468;2023-02-20T10:21:06;6.27;;;2.40;;
10537;SDS011;5317;49.048;8.468;2023-02-20T10:23:40;6.00;;;2.70;;
10537;SDS011;5317;49.048;8.468;2023-02-20T10:26:12;4.97;;;2.50;;
10537;SDS011;5317;49.048;8.468;2023-02-20T10:28:44;3.77;;;2.60;;
10537;SDS011;5317;49.048;8.468;2023-02-20T10:31:17;5.00;;;2.50;;
10537;SDS011;5317;49.048;8.468;2023-02-20T10:33:56;6.27;;;2.63;;
10537;SDS011;5317;49.048;8.468;2023-02-20T10:36:27;6.37;;;2.77;;
10537;SDS011;5317;49.048;8.468;2023-02-20T10:38:59;4.37;;;2.33;;
10537;SDS011;5317;49.048;8.468;2023-02-20T10:41:31;5.03;;;2.50;;
10537;SDS011;5317;49.048;8.468;2023-02-20T10:44:04;4.53;;;2.40;;
10537;SDS011;5317;49.048;8.468;2023-02-20T10:46:37;6.97;;;3.00;;
10537;SDS011;5317;49.048;8.468;2023-02-20T10:49:12;6.53;;;3.17;;
10537;SDS011;5317;49.048;8.468;2023-02-20T10:51:45;5.87;;;3.00;;
10537;SDS011;5317;49.048;8.468;2023-02-20T10:54:16;6.10;;;3.10;;
10537;SDS011;5317;49.048;8.468;2023-02-20T10:56:47;5.33;;;3.37;;
10537;SDS011;5317;49.048;8.468;2023-02-20T10:59:22;5.03;;;3.37;;
10537;SDS011;5317;49.048;8.468;2023-02-20T11:01:56;6.37;;;3.53;;
10537;SDS011;5317;49.048;8.468;2023-02-20T11:04:26;6.50;;;3.80;;
10537;SDS011;5317;49.048;8.468;2023-02-20T11:07:00;5.77;;;2.87;;
10537;SDS011;5317;49.048;8.468;2023-02-20T11:09:30;7.80;;;3.83;;
10537;SDS011;5317;49.048;8.468;2023-02-20T11:11:57;8.67;;;4.23;;
10537;SDS011;5317;49.048;8.468;2023-02-20T11:14:27;4.90;;;3.20;;
10537;SDS011;5317;49.048;8.468;2023-02-20T11:16:58;7.47;;;4.17;;
10537;SDS011;5317;49.048;8.468;2023-02-20T11:19:31;7.33;;;4.33;;
10537;SDS011;5317;49.048;8.468;2023-02-20T11:22:05;4.50;;;3.57;;
10537;SDS011;5317;49.048;8.468;2023-02-20T11:24:33;6.97;;;3.70;;
10537;SDS011;5317;49.048;8.468;2023-02-20T11:27:02;7.40;;;3.83;;
10537;SDS011;5317;49.048;8.468;2023-02-20T11:29:33;5.30;;;3.53;;
10537;SDS011;5317;49.048;8.468;2023-02-20T11:35:22;9.37;;;4.00;;
10537;SDS011;5317;49.048;8.468;2023-02-20T11:38:24;8.77;;;4.07;;
10537;SDS011;5317;49.048;8.468;2023-02-20T11:41:02;7.37;;;3.47;;
10537;SDS011;5317;49.048;8.468;2023-02-20T11:43:39;7.30;;;3.80;;
10537;SDS011;5317;49.048;8.468;2023-02-20T11:46:09;5.67;;;3.80;;
10537;SDS011;5317;49.048;8.468;2023-02-20T11:48:43;7.60;;;4.10;;
10537;SDS011;5317;49.048;8.468;2023-02-20T11:51:36;8.10;;;4.27;;
10537;SDS011;5317;49.048;8.468;2023-02-20T11:54:06;8.60;;;4.20;;
10537;SDS011;5317;49.048;8.468;2023-02-20T11:56:35;5.40;;;3.90;;
10537;SDS011;5317;49.048;8.468;2023-02-20T11:59:24;4.67;;;3.83;;
10537;SDS011;5317;49.048;8.468;2023-02-20T12:05:08;5.57;;;3.77;;
10537;SDS011;5317;49.048;8.468;2023-02-20T12:07:39;6.90;;;4.43;;
10537;SDS011;5317;49.048;8.468;2023-02-20T12:12:56;7.43;;;4.13;;
10537;SDS011;5317;49.048;8.468;2023-02-20T12:15:24;8.83;;;4.57;;
10537;SDS011;5317;49.048;8.468;2023-02-20T12:21:05;6.80;;;4.23;;
10537;SDS011;5317;49.048;8.468;2023-02-20T12:23:45;7.13;;;4.73;;
10537;SDS011;5317;49.048;8.468;2023-02-20T12:26:31;5.57;;;4.00;;
10537;SDS011;5317;49.048;8.468;2023-02-20T12:29:12;9.83;;;4.27;;
10537;SDS011;5317;49.048;8.468;2023-02-20T12:31:54;6.60;;;3.80;;
10537;SDS011;5317;49.048;8.468;2023-02-20T12:34:35;7.47;;;3.97;;
10537;SDS011;5317;49.048;8.468;2023-02-20T12:37:23;5.73;;;3.90;;
10537;SDS011;5317;49.048;8.468;2023-02-20T12:40:04;8.37;;;4.23;;
10537;SDS011;5317;49.048;8.468;2023-02-20T12:42:49;6.57;;;3.87;;
10537;SDS011;5317;49.048;8.468;2023-02-20T12:45:22;7.60;;;4.23;;
10537;SDS011;5317;49.048;8.468;2023-02-20T12:47:59;8.03;;;3.97;;
10537;SDS011;5317;49.048;8.468;2023-02-20T12:50:51;7.63;;;3.63;;
10537;SDS011;5317;49.048;8.468;2023-02-20T12:53:37;6.90;;;3.60;;
10537;SDS011;5317;49.048;8.468;2023-02-20T12:56:23;6.60;;;4.03;;
10537;SDS011;5317;49.048;8.468;2023-02-20T12:59:00;5.53;;;4.50;;
10537;SDS011;5317;49.048;8.468;2023-02-20T13:01:32;6.23;;;4.17;;
10537;SDS011;5317;49.048;8.468;2023-02-20T13:04:01;10.37;;;4.37;;
10537;SDS011;5317;49.048;8.468;2023-02-20T13:06:34;6.93;;;4.73;;
10537;SDS011;5317;49.048;8.468;2023-02-20T13:09:10;5.20;;;4.17;;
10537;SDS011;5317;49.048;8.468;2023-02-20T13:11:46;5.47;;;3.83;;
10537;SDS011;5317;49.048;8.468;2023-02-20T13:14:20;4.70;;;4.10;;
10537;SDS011;5317;49.048;8.468;2023-02-20T13:16:54;8.70;;;4.80;;
10537;SDS011;5317;49.048;8.468;2023-02-20T13:19:28;7.83;;;4.43;;
10537;SDS011;5317;49.048;8.468;2023-02-20T13:22:01;7.53;;;4.20;;
10537;SDS011;5317;49.048;8.468;2023-02-20T13:24:32;5.30;;;3.93;;
10537;SDS011;5317;49.048;8.468;2023-02-20T13:27:02;4.97;;;3.97;;
10537;SDS011;5317;49.048;8.468;2023-02-20T13:29:32;6.67;;;4.90;;
10537;SDS011;5317;49.048;8.468;2023-02-20T13:32:03;5.57;;;3.70;;
10537;SDS011;5317;49.048;8.468;2023-02-20T13:34:48;6.43;;;4.10;;
10537;SDS011;5317;49.048;8.468;2023-02-20T13:43:19;6.50;;;3.90;;
10537;SDS011;5317;49.048;8.468;2023-02-20T13:48:47;6.10;;;3.73;;
10537;SDS011;5317;49.048;8.468;2023-02-20T13:51:32;4.17;;;3.23;;
10537;SDS011;5317;49.048;8.468;2023-02-20T13:54:06;5.90;;;3.33;;
10537;SDS011;5317;49.048;8.468;2023-02-20T13:56:50;6.93;;;3.87;;
10537;SDS011;5317;49.048;8.468;2023-02-20T13:59:24;8.87;;;3.70;;
10537;SDS011;5317;49.048;8.468;2023-02-20T14:04:50;5.90;;;3.60;;
10537;SDS011;5317;49.048;8.468;2023-02-20T14:07:28;6.07;;;3.50;;
10537;SDS011;5317;49.048;8.468;2023-02-20T14:09:59;5.97;;;3.67;;
10537;SDS011;5317;49.048;8.468;2023-02-20T14:12:27;6.10;;;3.57;;
10537;SDS011;5317;49.048;8.468;2023-02-20T14:14:56;9.03;;;4.03;;
10537;SDS011;5317;49.048;8.468;2023-02-20T14:17:23;7.17;;;3.83;;
10537;SDS011;5317;49.048;8.468;2023-02-20T14:19:53;5.20;;;3.47;;
10537;SDS011;5317;49.048;8.468;2023-02-20T14:22:24;5.47;;;3.50;;
10537;SDS011;5317;49.048;8.468;2023-02-20T14:25:00;7.63;;;3.70;;
10537;SDS011;5317;49.048;8.468;2023-02-20T14:27:43;5.13;;;3.03;;
10537;SDS011;5317;49.048;8.468;2023-02-20T14:30:13;7.00;;;3.10;;
10537;SDS011;5317;49.048;8.468;2023-02-20T14:32:42;5.87;;;3.43;;
10537;SDS011;5317;49.048;8.468;2023-02-20T14:35:12;5.00;;;3.20;;
10537;SDS011;5317;49.048;8.468;2023-02-20T14:37:56;5.47;;;3.30;;
10537;SDS011;5317;49.048;8.468;2023-02-20T14:40:31;4.80;;;3.47;;
10537;SDS011;5317;49.048;8.468;2023-02-20T14:43:02;5.67;;;2.90;;
10537;SDS011;5317;49.048;8.468;2023-02-20T14:45:36;5.60;;;3.00;;
10537;SDS011;5317;49.048;8.468;2023-02-20T14:48:03;9.60;;;3.40;;
10537;SDS011;5317;49.048;8.468;2023-02-20T14:50:31;5.33;;;3.43;;
10537;SDS011;5317;49.048;8.468;2023-02-20T14:53:00;5.87;;;3.23;;
10537;SDS011;5317;49.048;8.468;2023-02-20T14:55:28;5.00;;;2.83;;
10537;SDS011;5317;49.048;8.468;2023-02-20T14:57:55;5.93;;;2.90;;
10537;SDS011;5317;49.048;8.468;2023-02-20T15:00:23;5.20;;;3.10;;
10537;SDS011;5317;49.048;8.468;2023-02-20T15:02:59;3.37;;;2.73;;
10537;SDS011;5317;49.048;8.468;2023-02-20T15:05:32;5.80;;;2.87;;
10537;SDS011;5317;49.048;8.468;2023-02-20T15:08:00;4.37;;;2.63;;
10537;SDS011;5317;49.048;8.468;2023-02-20T15:10:37;4.27;;;2.53;;
10537;SDS011;5317;49.048;8.468;2023-02-20T15:13:07;6.07;;;2.60;;
10537;SDS011;5317;49.048;8.468;2023-02-20T15:15:36;4.40;;;2.63;;
10537;SDS011;5317;49.048;8.468;2023-02-20T15:18:07;6.13;;;2.63;;
10537;SDS011;5317;49.048;8.468;2023-02-20T15:20:37;6.77;;;2.43;;
10537;SDS011;5317;49.048;8.468;2023-02-20T15:23:09;4.03;;;2.30;;
10537;SDS011;5317;49.048;8.468;2023-02-20T15:25:48;3.57;;;2.47;;
10537;SDS011;5317;49.048;8.468;2023-02-20T15:28:23;3.30;;;2.33;;
10537;SDS011;5317;49.048;8.468;2023-02-20T15:30:59;5.97;;;2.50;;
10537;SDS011;5317;49.048;8.468;2023-02-20T15:33:29;4.97;;;2.50;;
10537;SDS011;5317;49.048;8.468;2023-02-20T15:35:58;4.53;;;2.87;;
10537;SDS011;5317;49.048;8.468;2023-02-20T15:38:26;6.53;;;3.10;;
10537;SDS011;5317;49.048;8.468;2023-02-20T15:40:55;6.80;;;2.87;;
10537;SDS011;5317;49.048;8.468;2023-02-20T15:43:23;6.33;;;3.30;;
10537;SDS011;5317;49.048;8.468;2023-02-20T15:45:50;4.63;;;2.90;;
10537;SDS011;5317;49.048;8.468;2023-02-20T15:48:17;5.73;;;3.03;;
10537;SDS011;5317;49.048;8.468;2023-02-20T15:50:46;5.33;;;2.90;;
10537;SDS011;5317;49.048;8.468;2023-02-20T15:53:13;3.83;;;2.60;;
10537;SDS011;5317;49.048;8.468;2023-02-20T15:55:43;4.70;;;3.00;;